Pasco, WA (99301)

11:15 AM PST on February 19, 2017 (GMT -0800)
Madison Park | | Change Station

Elev 505 ft 46.28 °N, 119.15 °W | Updated 29 seconds ago

Overcast
Overcast
39.9 °F
Feels Like 40 °F
N
0.0
Wind Variable Wind from SE

Today
High -- | Low -- °F
--% Chance of Precip.
Yesterday
High -- | Low -- °F
Precip. -- in
Pressure 29.58 in
Visibility 1.5 miles
Clouds Overcast 200 ft
Windchill 40 °F
Dew Point 37 °F
Humidity 91%
Rainfall 0.11 in
Snow Depth Not available.
6:52 AM 5:28 PM
Last Quarter, 41% visible
SPECI KPSC 191858Z 04003KT 1 1/2SM BR OVC002 03/02 A2958 RMK AO2 T00330022 $
Pressure 29.58 in
Visibility 1.5 miles
Clouds Overcast 200 ft
Windchill 40 °F
Dew Point 37 °F
Humidity 91%
Rainfall 0.11 in
Snow Depth Not available.
6:52 AM 5:28 PM
Last Quarter, 41% visible
SPECI KPSC 191858Z 04003KT 1 1/2SM BR OVC002 03/02 A2958 RMK AO2 T00330022 $

Get Your Daily Forecast Email!

Thanks for signing up!

Be on the lookout for a verification email in your inbox.

You'll start receiving the daily forecast at 8 AM.

×

10-Day Weather Forecast

Almanac

Astronomy

Feb. 19, 2017 Rise Set
Actual Time
Civil Twilight
Nautical Twilight
Astronomical Twilight
Moon
Length of Visible Light
Length of Day
Tomorrow will be .
, % of the Moon is Illuminated

Today's Extremes

State Highs State Lows

Community

WunderPhotos

Upload Photos

1,962,540 photos uploaded!

WunderBlog® & News

Nearby

Air Quality

  Air Quality AQ Index Pollutant
Not available.

Snow Depth

Station Depth Elevation

Earthquake Activity

City Distance Mag. Time & Date
Minimum magnitude displayed is 2.5.

Coastal Water Temperatures

Place Temperature

Stations

Nearby Weather Stations

Station Location Temp. Windchill Dew Point Humidity Wind Precip. Elev Updated Type
                   

Watches & Warnings

There are currently no watches in effect.